Time;durP1;ratioP1;P1;durP2;ratioP2;P2;SDS_P1;SDS_P2;PMS_P1;PMS_P2;Temp;Humidity;BMP_temperature;BMP_pressure;BME280_temperature;BME280_humidity;BME280_pressure;Samples;Min_cycle;Max_cycle;Signal;HPM_P1;HPM_P2
2021/03/11 00:00:41;;;;;;;;;;;;;;;8.13;100.00;95911.13;5056037;28;20101;-81
2021/03/11 00:03:12;;;;;;;;;;;;;;;8.21;100.00;95900.38;5107006;28;19925;-81
2021/03/11 00:05:39;;;;;;;;;;;;;;;8.28;100.00;95884.09;5074741;28;19931;-81
2021/03/11 00:08:06;;;;;;;;;;;;;;;8.29;100.00;95880.03;5098475;28;19924;-81
2021/03/11 00:10:33;;;;;;;;;;;;;;;8.37;100.00;95866.50;5100301;28;19924;-81
2021/03/11 00:13:00;;;;;;;;;;;;;;;8.44;100.00;95869.63;5069637;28;19924;-81
2021/03/11 00:15:26;;;;;;;;;;;;;;;8.43;100.00;95862.53;5078964;28;20268;-81
2021/03/11 00:17:53;;;;;;;;;;;;;;;8.39;100.00;95828.59;5056001;28;19974;-81
2021/03/11 00:20:24;;;;;;;;;;;;;;;8.29;100.00;95849.44;5098841;28;19925;-82
2021/03/11 00:22:51;;;;;;;;;;;;;;;8.21;100.00;95814.19;5099987;28;19964;-81
2021/03/11 00:25:19;;;;;;;;;;;;;;;8.25;100.00;95823.88;5088605;28;19924;-82
2021/03/11 00:27:46;;;;;;;;;;;;;;;8.16;100.00;95825.97;5064305;28;19960;-82
2021/03/11 00:30:26;;;;;;;;;;;;;;;8.07;100.00;95815.00;5074779;28;20383;-82
2021/03/11 00:32:53;;;;;;;;;;;;;;;8.01;100.00;95820.44;5068385;28;20379;-81
2021/03/11 00:35:21;;;;;;;;;;;;;;;7.93;100.00;95802.66;5058866;28;20315;-82
2021/03/11 00:37:48;;;;;;;;;;;;;;;7.88;100.00;95803.34;5048112;28;19924;-82
2021/03/11 00:40:16;;;;;;;;;;;;;;;7.93;100.00;95788.75;5072989;28;19939;-82
2021/03/11 00:42:43;;;;;;;;;;;;;;;7.88;100.00;95772.00;5065805;28;19925;-82
2021/03/11 00:45:10;;;;;;;;;;;;;;;7.98;100.00;95776.19;5039991;28;19931;-81
2021/03/11 00:47:38;;;;;;;;;;;;;;;8.02;100.00;95765.63;5067593;28;19972;-82
2021/03/11 00:50:07;;;;;;;;;;;;;;;8.09;100.00;95740.94;5052905;28;19924;-82
2021/03/11 00:52:34;;;;;;;;;;;;;;;8.10;100.00;95728.59;5108555;28;20017;-82
2021/03/11 00:55:00;;;;;;;;;;;;;;;8.16;100.00;95715.53;5058075;28;19932;-81
2021/03/11 00:57:27;;;;;;;;;;;;;;;8.20;100.00;95732.75;5060559;28;19924;-81
2021/03/11 00:59:54;;;;;;;;;;;;;;;8.20;100.00;95727.19;5080842;28;19924;-82
2021/03/11 01:02:21;;;;;;;;;;;;;;;8.21;100.00;95728.72;5073626;28;19925;-82
2021/03/11 01:04:47;;;;;;;;;;;;;;;8.17;100.00;95722.63;5082617;28;20474;-82
2021/03/11 01:07:16;;;;;;;;;;;;;;;8.20;100.00;95709.75;5035459;28;19925;-82
2021/03/11 01:09:43;;;;;;;;;;;;;;;8.16;100.00;95707.19;5089528;28;19929;-82
2021/03/11 01:12:13;;;;;;;;;;;;;;;8.18;100.00;95696.31;5071006;28;19925;-82
2021/03/11 01:14:40;;;;;;;;;;;;;;;8.20;100.00;95676.38;5071603;28;19925;-81
2021/03/11 01:17:07;;;;;;;;;;;;;;;8.13;100.00;95672.03;5099275;28;19925;-82
2021/03/11 01:19:34;;;;;;;;;;;;;;;8.05;100.00;95678.47;5085924;28;20371;-82
2021/03/11 01:22:01;;;;;;;;;;;;;;;8.03;100.00;95684.53;5057599;28;19970;-82
2021/03/11 01:24:28;;;;;;;;;;;;;;;8.09;100.00;95667.94;5091297;28;20070;-82
2021/03/11 01:26:54;;;;;;;;;;;;;;;8.08;100.00;95642.13;5070419;28;19925;-82
2021/03/11 01:29:21;;;;;;;;;;;;;;;8.15;100.00;95646.50;5054117;28;20422;-82
2021/03/11 01:31:47;;;;;;;;;;;;;;;8.21;100.00;95641.78;5072557;28;19985;-82
2021/03/11 01:34:14;;;;;;;;;;;;;;;8.24;100.00;95621.34;5064762;28;20332;-82
2021/03/11 01:36:41;;;;;;;;;;;;;;;8.27;100.00;95625.94;5055412;28;19925;-82
2021/03/11 01:39:08;;;;;;;;;;;;;;;8.26;100.00;95632.72;5072750;28;19925;-82
2021/03/11 01:41:34;;;;;;;;;;;;;;;8.24;100.00;95621.34;5073960;28;19932;-82
2021/03/11 01:44:01;;;;;;;;;;;;;;;8.15;100.00;95611.09;5037334;28;19925;-82
2021/03/11 01:46:28;;;;;;;;;;;;;;;8.12;100.00;95631.56;5049493;28;19925;-82
2021/03/11 01:48:55;;;;;;;;;;;;;;;8.09;100.00;95626.97;5093071;28;19932;-82
2021/03/11 01:51:22;;;;;;;;;;;;;;;8.05;100.00;95614.53;5107326;28;20659;-82
2021/03/11 01:53:50;;;;;;;;;;;;;;;8.01;100.00;95598.06;5056931;28;19972;-82
2021/03/11 01:56:17;;;;;;;;;;;;;;;7.83;100.00;95592.81;5056990;28;19924;-82
2021/03/11 01:58:44;;;;;;;;;;;;;;;7.84;100.00;95572.13;5073395;28;19924;-82
2021/03/11 02:01:10;;;;;;;;;;;;;;;7.85;100.00;95570.88;5056754;28;19924;-82
2021/03/11 02:03:37;;;;;;;;;;;;;;;7.79;100.00;95575.59;5027149;28;19958;-82
2021/03/11 02:06:04;;;;;;;;;;;;;;;7.83;100.00;95561.50;5058862;28;19932;-82
2021/03/11 02:08:30;;;;;;;;;;;;;;;7.83;100.00;95570.56;5107223;28;19950;-82
2021/03/11 02:10:57;;;;;;;;;;;;;;;7.87;100.00;95553.69;5070438;28;20413;-82
2021/03/11 02:13:30;;;;;;;;;;;;;;;7.88;100.00;95550.44;5092928;28;20375;-82
2021/03/11 02:16:19;;;;;;;;;;;;;;;7.89;100.00;95551.94;5060068;28;19924;-81
2021/03/11 02:18:48;;;;;;;;;;;;;;;7.88;100.00;95539.31;5041576;28;19925;-82
2021/03/11 02:21:21;;;;;;;;;;;;;;;7.84;100.00;95502.66;5053765;28;19924;-82
2021/03/11 02:23:48;;;;;;;;;;;;;;;7.81;100.00;95528.63;5065862;28;19929;-82
2021/03/11 02:26:14;;;;;;;;;;;;;;;7.81;100.00;95536.97;5066691;28;19932;-82
2021/03/11 02:28:47;;;;;;;;;;;;;;;7.82;100.00;95524.59;5073857;28;19932;-82
2021/03/11 02:31:14;;;;;;;;;;;;;;;7.79;100.00;95475.56;5060680;28;19975;-82
2021/03/11 02:33:41;;;;;;;;;;;;;;;7.72;100.00;95506.56;5074464;28;19924;-82
2021/03/11 02:36:08;;;;;;;;;;;;;;;7.71;100.00;95482.81;5061921;28;19925;-81
2021/03/11 02:38:34;;;;;;;;;;;;;;;7.65;100.00;95473.66;5053482;28;20005;-82
2021/03/11 02:41:01;;;;;;;;;;;;;;;7.65;100.00;95473.66;5106759;28;19924;-82
2021/03/11 02:43:29;;;;;;;;;;;;;;;7.72;100.00;95476.00;5072424;28;19924;-81
2021/03/11 02:45:56;;;;;;;;;;;;;;;7.72;100.00;95470.44;5089937;28;19928;-82
2021/03/11 02:48:23;;;;;;;;;;;;;;;7.75;100.00;95502.03;5072576;28;20326;-82
2021/03/11 02:50:49;;;;;;;;;;;;;;;7.70;100.00;95461.06;5106168;28;20360;-82
2021/03/11 02:53:16;;;;;;;;;;;;;;;7.61;100.00;95462.00;5056280;28;19961;-82
2021/03/11 02:55:43;;;;;;;;;;;;;;;7.47;100.00;95476.75;5039640;28;19960;-82
2021/03/11 02:58:11;;;;;;;;;;;;;;;7.40;100.00;95460.53;5062020;28;20028;-82
2021/03/11 03:00:40;;;;;;;;;;;;;;;7.42;100.00;95462.81;5069236;28;19924;-81
2021/03/11 03:03:08;;;;;;;;;;;;;;;7.30;100.00;95456.34;5056326;28;20019;-82
2021/03/11 03:05:35;;;;;;;;;;;;;;;7.26;100.00;95472.47;5038135;28;20015;-82
2021/03/11 03:08:03;;;;;;;;;;;;;;;7.22;100.00;95463.59;5052705;28;19957;-82
2021/03/11 03:10:31;;;;;;;;;;;;;;;7.17;100.00;95458.72;5069405;28;20306;-81
2021/03/11 03:13:00;;;;;;;;;;;;;;;7.13;100.00;95458.94;5052085;28;19960;-82
2021/03/11 03:15:27;;;;;;;;;;;;;;;7.15;100.00;95450.88;5085608;28;19924;-82
2021/03/11 03:17:54;;;;;;;;;;;;;;;7.19;100.00;95451.44;5067280;28;19924;-81
2021/03/11 03:20:22;;;;;;;;;;;;;;;7.12;100.00;95462.19;5065030;28;20035;-82
2021/03/11 03:22:49;;;;;;;;;;;;;;;7.05;100.00;95448.75;5065872;28;20033;-82
2021/03/11 03:25:17;;;;;;;;;;;;;;;7.03;100.00;95456.78;5100163;28;19925;-81
2021/03/11 03:27:43;;;;;;;;;;;;;;;7.00;100.00;95460.53;5052206;28;20395;-82
2021/03/11 03:30:11;;;;;;;;;;;;;;;6.98;100.00;95458.25;5053687;28;19925;-82
2021/03/11 03:32:38;;;;;;;;;;;;;;;6.97;100.00;95455.97;5063927;28;19925;-82
2021/03/11 03:35:06;;;;;;;;;;;;;;;7.00;100.00;95455.00;5072189;28;20018;-82
2021/03/11 03:37:33;;;;;;;;;;;;;;;6.96;100.00;95437.78;5047375;28;20383;-82
2021/03/11 03:40:05;;;;;;;;;;;;;;;6.96;100.00;95437.78;5066181;28;20015;-82
2021/03/11 03:42:34;;;;;;;;;;;;;;;6.97;100.00;95431.75;5035385;28;20319;-82
2021/03/11 03:45:03;;;;;;;;;;;;;;;6.92;100.00;95442.81;5066208;28;19930;-82
2021/03/11 03:47:29;;;;;;;;;;;;;;;6.93;100.00;95428.44;5038919;28;19931;-82
2021/03/11 03:49:57;;;;;;;;;;;;;;;6.94;100.00;95437.50;5064663;28;19924;-82
2021/03/11 03:52:25;;;;;;;;;;;;;;;6.97;100.00;95428.97;5057959;28;19963;-82
2021/03/11 03:54:52;;;;;;;;;;;;;;;6.98;100.00;95422.16;5071720;28;19925;-81
2021/03/11 03:57:20;;;;;;;;;;;;;;;7.07;100.00;95426.84;5071400;28;19935;-81
2021/03/11 03:59:49;;;;;;;;;;;;;;;7.11;100.00;95427.38;5071467;28;19925;-81
2021/03/11 04:02:16;;;;;;;;;;;;;;;7.13;100.00;95397.13;5059078;28;19925;-82
2021/03/11 04:04:43;;;;;;;;;;;;;;;7.18;100.00;95407.50;5075594;28;20031;-81
2021/03/11 04:07:12;;;;;;;;;;;;;;;7.21;100.00;95381.53;5078381;28;19932;-81
2021/03/11 04:09:39;;;;;;;;;;;;;;;7.25;100.00;95387.66;5068055;28;19932;-82
2021/03/11 04:12:09;;;;;;;;;;;;;;;7.19;100.00;95392.41;5055704;28;20552;-82
2021/03/11 04:14:37;;;;;;;;;;;;;;;7.20;100.00;95369.69;5070844;28;19924;-82
2021/03/11 04:17:04;;;;;;;;;;;;;;;7.22;100.00;95369.94;5055192;28;19936;-82
2021/03/11 04:19:33;;;;;;;;;;;;;;;7.19;100.00;95392.41;5068914;28;19931;-81
2021/03/11 04:22:01;;;;;;;;;;;;;;;7.11;100.00;95366.31;5068648;28;20338;-82
2021/03/11 04:24:28;;;;;;;;;;;;;;;7.10;100.00;95364.78;5084979;28;19924;-82
2021/03/11 04:26:57;;;;;;;;;;;;;;;7.08;100.00;95347.84;5070130;28;19924;-82
2021/03/11 04:29:24;;;;;;;;;;;;;;;7.08;100.00;95378.38;5066971;28;19924;-82
2021/03/11 04:31:51;;;;;;;;;;;;;;;7.05;100.00;95351.63;5061030;28;19925;-82
2021/03/11 04:34:17;;;;;;;;;;;;;;;7.04;100.00;95342.53;5076451;28;19924;-82
2021/03/11 04:36:44;;;;;;;;;;;;;;;7.11;100.00;95349.66;5042502;28;19924;-82
2021/03/11 04:39:11;;;;;;;;;;;;;;;7.08;100.00;95329.22;5062967;28;20398;-82
2021/03/11 04:41:38;;;;;;;;;;;;;;;7.08;100.00;95356.97;5091953;28;19948;-82
2021/03/11 04:44:05;;;;;;;;;;;;;;;7.05;100.00;95368.28;5075314;28;19928;-82
2021/03/11 04:46:33;;;;;;;;;;;;;;;7.04;100.00;95350.09;5045609;28;19935;-82
2021/03/11 04:49:00;;;;;;;;;;;;;;;7.02;100.00;95347.81;5103062;28;19931;-82
2021/03/11 04:51:27;;;;;;;;;;;;;;;7.03;100.00;95354.88;5049458;28;19959;-82
2021/03/11 04:53:54;;;;;;;;;;;;;;;7.08;100.00;95350.63;5108326;28;19925;-81
2021/03/11 04:56:22;;;;;;;;;;;;;;;7.10;100.00;95360.00;5058358;28;19924;-82
2021/03/11 04:58:49;;;;;;;;;;;;;;;7.15;100.00;95372.41;5092449;28;20040;-81
2021/03/11 05:01:29;;;;;;;;;;;;;;;7.14;100.00;95365.34;5056824;28;19924;-81
2021/03/11 05:03:56;;;;;;;;;;;;;;;7.17;100.00;95369.91;5063699;28;20298;-81
2021/03/11 05:06:23;;;;;;;;;;;;;;;7.14;100.00;95376.44;5055660;28;19928;-81
2021/03/11 05:08:49;;;;;;;;;;;;;;;7.14;100.00;95373.66;5038016;28;19975;-81
2021/03/11 05:11:16;;;;;;;;;;;;;;;7.11;100.00;95361.53;5018375;28;19932;-82
2021/03/11 05:13:43;;;;;;;;;;;;;;;7.13;100.00;95363.81;5079980;28;20062;-82
2021/03/11 05:16:10;;;;;;;;;;;;;;;7.15;100.00;95355.75;5054170;28;19931;-81
2021/03/11 05:18:36;;;;;;;;;;;;;;;7.13;100.00;95355.50;5098243;28;19932;-82
2021/03/11 05:21:03;;;;;;;;;;;;;;;7.09;100.00;95352.91;5059058;28;19958;-82
2021/03/11 05:23:30;;;;;;;;;;;;;;;7.05;100.00;95362.72;5037796;28;19970;-82
2021/03/11 05:25:57;;;;;;;;;;;;;;;7.04;100.00;95363.97;5054470;28;19924;-81
2021/03/11 05:28:23;;;;;;;;;;;;;;;7.05;100.00;95379.38;5037897;28;19929;-81
2021/03/11 05:30:50;;;;;;;;;;;;;;;7.06;100.00;95391.97;5037745;28;20336;-82
2021/03/11 05:33:17;;;;;;;;;;;;;;;7.08;100.00;95395.03;5055253;28;20034;-81
2021/03/11 05:35:43;;;;;;;;;;;;;;;7.09;100.00;95404.88;5055159;28;19982;-82
2021/03/11 05:38:10;;;;;;;;;;;;;;;7.05;100.00;95399.56;5087060;28;21479;-82
2021/03/11 05:40:37;;;;;;;;;;;;;;;7.09;100.00;95424.31;5087161;28;19925;-81
2021/03/11 05:43:05;;;;;;;;;;;;;;;7.04;100.00;95427.81;5037569;28;19971;-82
2021/03/11 05:45:32;;;;;;;;;;;;;;;7.05;100.00;95434.88;5055166;28;20015;-82
2021/03/11 05:47:58;;;;;;;;;;;;;;;7.01;100.00;95431.56;5054164;28;20330;-81
2021/03/11 05:50:26;;;;;;;;;;;;;;;7.02;100.00;95424.75;5037511;28;19925;-82
2021/03/11 05:52:53;;;;;;;;;;;;;;;7.06;100.00;95453.03;5053538;28;20047;-82
2021/03/11 05:55:20;;;;;;;;;;;;;;;7.04;100.00;95452.78;5087217;28;19976;-82
2021/03/11 05:57:46;;;;;;;;;;;;;;;7.03;100.00;95459.56;5070477;28;19940;-82
2021/03/11 06:00:15;;;;;;;;;;;;;;;7.03;100.00;95503.97;5053442;28;19932;-82
2021/03/11 06:02:46;;;;;;;;;;;;;;;7.06;100.00;95500.22;5037639;28;19925;-82
2021/03/11 06:05:16;;;;;;;;;;;;;;;7.05;100.00;95515.34;5053375;28;20015;-82
2021/03/11 06:07:46;;;;;;;;;;;;;;;7.07;100.00;95521.19;5053272;28;20020;-82
2021/03/11 06:10:14;;;;;;;;;;;;;;;7.13;100.00;95497.06;5053431;28;19929;-82
2021/03/11 06:12:41;;;;;;;;;;;;;;;7.19;100.00;95533.97;5053364;28;19947;-82
2021/03/11 06:15:11;;;;;;;;;;;;;;;7.16;100.00;95546.03;5053291;28;20333;-83
2021/03/11 06:17:40;;;;;;;;;;;;;;;7.13;100.00;95563.66;5020815;28;20332;-83
2021/03/11 06:20:07;;;;;;;;;;;;;;;7.12;100.00;95564.91;5053430;28;19925;-83
2021/03/11 06:22:34;;;;;;;;;;;;;;;7.08;100.00;95517.94;5052945;28;19925;-85
2021/03/11 06:25:01;;;;;;;;;;;;;;;6.89;100.00;95607.47;5032770;28;20043;-83
2021/03/11 06:27:28;;;;;;;;;;;;;;;6.86;100.00;95627.88;5049637;28;20691;-83
2021/03/11 06:29:57;;;;;;;;;;;;;;;6.81;100.00;95647.94;5069867;28;19928;-82
2021/03/11 06:32:25;;;;;;;;;;;;;;;6.76;100.00;95657.72;5036087;28;20298;-82
2021/03/11 06:34:51;;;;;;;;;;;;;;;6.69;100.00;95674.75;5054403;28;20412;-83
2021/03/11 06:37:35;;;;;;;;;;;;;;;6.62;100.00;95686.22;5053958;28;19932;-83
2021/03/11 06:53:00;;;;;;;;;;;;;;;5.82;100.00;95831.75;4984152;28;19918;-83
2021/03/11 06:55:30;;;;;;;2.67;0.70;;;;;;;5.46;100.00;95777.28;4975802;28;19936;-83
2021/03/11 06:58:14;;;;;;;3.45;0.60;;;;;;;5.33;100.00;95755.34;4945606;28;20043;-83
2021/03/11 07:00:42;;;;;;;1.48;0.70;;;;;;;5.49;100.00;95859.41;4947538;28;20035;-83
2021/03/11 07:03:10;;;;;;;5.63;0.80;;;;;;;5.39;100.00;95919.56;4948112;28;20039;-83
2021/03/11 07:05:42;;;;;;;1.90;0.60;;;;;;;5.39;100.00;95965.88;4965788;28;20126;-83
2021/03/11 07:08:13;;;;;;;1.27;0.52;;;;;;;5.19;100.00;95974.66;4959241;28;20035;-84
2021/03/11 07:10:42;;;;;;;3.95;1.05;;;;;;;5.23;100.00;95985.53;4960127;28;20603;-83
2021/03/11 07:13:08;;;;;;;5.57;1.08;;;;;;;5.39;100.00;95986.00;4947772;28;20495;-83
2021/03/11 07:15:37;;;;;;;6.53;1.45;;;;;;;5.40;100.00;95992.31;4965023;28;20117;-83
2021/03/11 07:18:19;;;;;;;10.18;2.20;;;;;;;5.38;100.00;96026.00;4960549;28;20521;-82
2021/03/11 07:20:46;;;;;;;7.20;1.50;;;;;;;5.36;100.00;96033.97;4962168;28;20500;-82
2021/03/11 07:23:17;;;;;;;14.68;2.22;;;;;;;5.33;100.00;96051.50;4965628;28;20074;-83
2021/03/11 07:25:48;;;;;;;14.20;2.17;;;;;;;5.44;100.00;96085.06;4962485;28;20043;-83
2021/03/11 07:28:24;;;;;;;6.00;0.95;;;;;;;5.40;100.00;96128.75;4964063;28;20078;-82
2021/03/11 07:31:00;;;;;;;6.60;1.42;;;;;;;5.36;100.00;96080.31;4959745;28;20038;-83
2021/03/11 07:33:29;;;;;;;7.53;1.17;;;;;;;5.38;100.00;96095.22;4964893;28;20494;-82
2021/03/11 07:35:57;;;;;;;5.35;1.05;;;;;;;5.40;100.00;96109.38;4964762;28;20088;-82
2021/03/11 07:38:26;;;;;;;11.85;1.80;;;;;;;5.28;100.00;96115.81;4965998;28;20185;-82
2021/03/11 07:40:56;;;;;;;7.93;1.48;;;;;;;5.22;100.00;96137.03;4962319;28;20045;-82
2021/03/11 07:43:24;;;;;;;7.43;1.50;;;;;;;5.21;100.00;96127.16;4964343;28;20516;-82
2021/03/11 07:46:01;;;;;;;11.30;1.73;;;;;;;5.28;100.00;96151.81;4949465;28;20050;-82
2021/03/11 07:48:28;;;;;;;14.27;2.42;;;;;;;5.25;100.00;96739.56;4965197;28;20043;-79
2021/03/11 07:50:56;;;;;;;5.22;2.13;;;;;;;5.27;100.00;96764.78;4969289;28;20047;-80
2021/03/11 07:53:25;;;;;;;12.10;2.27;;;;;;;5.30;100.00;96774.97;4954311;28;20047;-80
2021/03/11 07:55:56;;;;;;;12.45;2.05;;;;;;;5.42;100.00;96810.19;4952958;28;20032;-80
2021/03/11 07:58:41;;;;;;;8.10;1.70;;;;;;;5.32;100.00;96824.38;4949677;28;20050;-80
2021/03/11 08:01:09;;;;;;;13.70;2.45;;;;;;;5.26;100.00;96854.63;4953518;28;20085;-80
2021/03/11 08:03:39;;;;;;;10.45;2.10;;;;;;;5.29;100.00;96861.25;4952553;28;20241;-79
2021/03/11 08:06:23;;;;;;;18.40;2.72;;;;;;;5.30;100.00;96857.28;4951235;29;20039;-79
2021/03/11 08:08:50;;;;;;;12.52;1.92;;;;;;;5.16;100.00;96897.25;4951993;28;20444;-80
2021/03/11 08:11:34;;;;;;;10.35;2.20;;;;;;;5.24;100.00;96931.78;4951478;29;20475;-80
2021/03/11 08:14:16;;;;;;;6.28;1.83;;;;;;;5.26;100.00;96965.38;4952722;28;20039;-80
2021/03/11 08:16:43;;;;;;;13.38;1.90;;;;;;;5.18;100.00;96955.69;4952610;28;20035;-80
2021/03/11 08:19:30;;;;;;;14.07;2.45;;;;;;;5.31;100.00;97020.22;4951228;28;20039;-81
2021/03/11 08:21:57;;;;;;;20.63;3.05;;;;;;;5.36;100.00;97030.72;4952231;28;20035;-80
2021/03/11 08:24:42;;;;;;;11.60;2.47;;;;;;;5.51;100.00;97826.91;4952231;29;20039;-81
2021/03/11 08:27:32;;;;;;;10.20;2.50;;;;;;;5.45;100.00;97789.81;4935676;28;20497;-79
2021/03/11 08:30:06;;;;;;;20.50;2.88;;;;;;;5.51;100.00;97782.59;4949767;28;20284;-79
2021/03/11 08:32:52;;;;;;;16.17;2.90;;;;;;;5.42;100.00;97745.56;4952285;28;20031;-79
2021/03/11 08:35:28;;;;;;;;;;;;;;;5.56;100.00;97754.41;4951728;29;20043;-81
2021/03/11 08:38:01;;;;;;;19.73;4.07;;;;;;;5.42;100.00;97702.00;4951251;28;19927;-80
2021/03/11 08:40:35;;;;;;;;;;;;;;;5.48;100.00;97722.47;4952364;28;20089;-80
2021/03/11 08:43:03;;;;;;;21.95;2.85;;;;;;;5.50;100.00;97728.38;4950901;29;20344;-80
2021/03/11 08:45:39;;;;;;;14.75;2.22;;;;;;;5.60;100.00;97740.50;4949837;29;20054;-79
2021/03/11 08:48:24;;;;;;;21.23;2.63;;;;;;;5.65;100.00;97719.84;4952441;28;20092;-82
2021/03/11 08:50:52;;;;;;;;;;;;;;;5.62;100.00;97715.16;4949713;29;20046;-78
2021/03/11 08:53:37;;;;;;;;;;;;;;;5.72;100.00;97708.63;4951196;29;20042;-78
2021/03/11 08:56:21;;;;;;;;;;;;;;;5.81;100.00;97711.63;4951076;28;20369;-78
2021/03/11 08:58:52;;;;;;;;;;;;;;;5.90;100.00;97737.63;4951101;29;19992;-78
2021/03/11 09:01:27;;;;;;;;;;;;;;;5.87;100.00;97732.13;4952761;28;19930;-78
2021/03/11 09:03:55;;;;;;;;;;;;;;;5.87;100.00;97732.13;4951587;28;19930;-78
2021/03/11 09:06:41;;;;;;;;;;;;;;;5.92;100.00;97745.50;4952644;28;19926;-78
2021/03/11 09:09:08;;;;;;;;;;;;;;;6.08;100.00;97690.91;4951917;28;20353;-78
2021/03/11 09:11:35;;;;;;;;;;;;;;;5.94;100.00;97698.75;4949560;28;20348;-78
2021/03/11 09:14:08;;;;;;;;;;;;;;;5.90;100.00;97692.47;4952272;28;19927;-78
2021/03/11 09:16:34;;;;;;;;;;;;;;;5.86;100.00;97680.69;4940577;29;19959;-78
2021/03/11 09:19:01;;;;;;;;;;;;;;;5.91;100.00;97691.28;4952214;28;20389;-78
2021/03/11 09:21:34;;;;;;;;;;;;;;;5.93;100.00;97697.16;4952140;28;19930;-78
2021/03/11 09:24:20;;;;;;;;;;;;;;;5.95;100.00;97705.84;4951896;28;20407;-78
2021/03/11 09:26:47;;;;;;;;;;;;;;;5.94;100.00;97673.78;4952060;28;19938;-78
2021/03/11 09:29:15;;;;;;;;;;;;;;;5.93;100.00;97673.00;4952084;28;20018;-78
2021/03/11 09:31:46;;;;;;;;;;;;;;;5.92;100.00;97685.31;4966891;28;19927;-78
2021/03/11 09:34:13;;;;;;;;;;;;;;;5.95;100.00;97658.72;4952029;28;19926;-78
2021/03/11 09:36:45;;;;;;;;;;;;;;;6.01;100.00;97645.91;4950895;29;20301;-78
2021/03/11 09:39:12;;;;;;;;;;;;;;;5.97;100.00;97648.00;4951702;28;20455;-78
2021/03/11 09:41:38;;;;;;;;;;;;;;;5.98;100.00;97646.78;4950333;29;19931;-78
2021/03/11 09:44:06;;;;;;;;;;;;;;;5.92;100.00;97645.72;4952144;28;19938;-78
2021/03/11 09:46:33;;;;;;;;;;;;;;;5.90;100.00;97596.25;4949461;28;19931;-78
2021/03/11 09:49:00;;;;;;;;;;;;;;;5.98;100.00;97619.03;4949283;29;20017;-77
2021/03/11 09:51:30;;;;;;;;;;;;;;;6.10;100.00;97599.00;4951439;28;19927;-77
2021/03/11 09:53:57;;;;;;;;;;;;;;;6.15;100.00;97592.94;4950655;29;19989;-78
2021/03/11 09:56:31;;;;;;;;;;;;;;;6.21;100.00;97555.16;4943156;28;19933;-79
2021/03/11 09:58:59;;;;;;;;;;;;;;;6.25;100.00;97570.53;4941219;29;20278;-78
2021/03/11 10:01:33;;;;;;;;;;;;;;;6.25;100.00;97545.56;4946375;28;20072;-78
2021/03/11 10:04:01;;;;;;;;;;;;;;;6.31;100.00;97479.25;4951899;28;19926;-79
2021/03/11 10:06:29;;;;;;;;;;;;;;;6.37;100.00;97535.78;4952157;28;20409;-78
2021/03/11 10:08:58;;;;;;;;;;;;;;;6.39;100.00;97508.38;4951760;28;20056;-78
2021/03/11 10:11:34;;;;;;;;;;;;;;;6.40;100.00;97471.09;4950364;28;19930;-78
2021/03/11 10:14:02;;;;;;;;;;;;;;;6.53;100.00;97477.50;4951802;28;20017;-77
2021/03/11 10:16:31;;;;;;;;;;;;;;;6.54;100.00;97445.78;4951483;28;19923;-78
2021/03/11 10:19:17;;;;;;;;;;;;;;;6.56;100.00;97435.00;4950524;29;19972;-78
2021/03/11 10:21:52;;;;;;;;;;;;;;;6.62;100.00;97424.97;5022199;28;19985;-78
2021/03/11 10:24:37;;;;;;;;;;;;;;;6.70;100.00;97385.47;4951587;28;20349;-78
2021/03/11 10:27:05;;;;;;;;;;;;;;;6.76;100.00;97374.59;4945523;29;20017;-78
2021/03/11 10:29:33;;;;;;;;;;;;;;;6.91;100.00;97356.34;4951416;28;19923;-78
2021/03/11 10:32:01;;;;;;;;;;;;;;;6.94;100.00;97349.91;4942617;28;20288;-78
2021/03/11 10:34:28;;;;;;;;;;;;;;;6.94;100.00;97299.94;4951428;28;19922;-78
2021/03/11 10:36:59;;;;;;;;;;;;;;;6.81;100.00;97251.94;4950072;28;20066;-78
2021/03/11 10:39:28;;;;;;;;;;;;;;;6.85;100.00;97219.31;4951533;28;19930;-79
2021/03/11 10:42:02;;;;;;;;;;;;;;;6.87;100.00;97228.75;4951145;28;19934;-78
2021/03/11 10:44:30;;;;;;;;;;;;;;;6.94;100.00;97199.97;4950540;29;19957;-78
2021/03/11 10:47:13;;;;;;;;;;;;;;;6.90;100.00;97166.00;4951223;28;19922;-78
2021/03/11 10:49:42;;;;;;;12.30;1.77;;;;;;;6.77;100.00;97121.59;4950627;28;19926;-77
2021/03/11 10:52:13;;;;;;;11.52;1.77;;;;;;;6.76;100.00;97108.16;4949417;29;20044;-78
2021/03/11 10:54:41;;;;;;;;;;;;;;;7.19;100.00;97122.22;4951481;28;20395;-78
2021/03/11 10:57:09;;;;;;;7.55;2.15;;;;;;;7.00;100.00;97092.69;4950942;28;19926;-78
2021/03/11 10:59:57;;;;;;;12.43;2.35;;;;;;;6.97;100.00;97080.50;4949556;29;20055;-78
2021/03/11 11:02:30;;;;;;;12.63;2.13;;;;;;;6.87;100.00;97011.44;4950744;28;20040;-78
2021/03/11 11:04:58;;;;;;;12.18;1.83;;;;;;;6.83;100.00;96944.19;4950551;28;20043;-78
2021/03/11 11:07:26;;;;;;;7.93;1.50;;;;;;;6.85;100.00;96858.44;4949400;29;20051;-78
2021/03/11 11:09:53;;;;;;;17.88;2.00;;;;;;;6.78;100.00;96817.09;4949654;29;20070;-78
2021/03/11 11:12:22;;;;;;;10.90;1.95;;;;;;;7.01;100.00;96400.22;4950592;28;20070;-78
2021/03/11 11:14:50;;;;;;;11.93;2.17;;;;;;;7.26;100.00;96388.75;4949057;29;20039;-78
2021/03/11 11:17:17;;;;;;;14.27;2.05;;;;;;;7.39;100.00;96372.72;4950365;28;20047;-78
2021/03/11 11:19:44;;;;;;;10.05;1.80;;;;;;;7.26;100.00;96375.66;4949747;28;20059;-78
2021/03/11 11:22:11;;;;;;;8.50;2.28;;;;;;;7.25;100.00;96376.13;4950208;28;20093;-78
2021/03/11 11:24:39;;;;;;;9.32;1.83;;;;;;;7.06;100.00;96358.72;4948997;29;20039;-78
2021/03/11 11:27:09;;;;;;;10.88;1.33;;;;;;;7.01;100.00;96366.91;4950703;28;20043;-78
2021/03/11 11:29:36;;;;;;;8.55;1.85;;;;;;;6.92;100.00;96375.25;4953606;28;20051;-77
2021/03/11 11:32:03;;;;;;;9.27;1.55;;;;;;;7.05;100.00;96365.50;4952700;29;20043;-77
2021/03/11 11:34:29;;;;;;;14.50;2.72;;;;;;;7.08;100.00;96380.47;4953450;28;20043;-77
2021/03/11 11:36:56;;;;;;;12.88;1.42;;;;;;;7.29;100.00;96368.41;4936734;29;20043;-77
2021/03/11 11:39:23;;;;;;;7.55;1.70;;;;;;;7.59;100.00;96386.84;4953377;28;20040;-78
2021/03/11 11:41:50;;;;;;;7.70;1.48;;;;;;;7.61;100.00;96386.38;4953391;29;20390;-78
2021/03/11 11:44:19;;;;;;;7.10;1.77;;;;;;;7.82;100.00;96363.91;4935324;29;20098;-78
2021/03/11 11:46:45;;;;;;;5.78;1.15;;;;;;;7.53;100.00;96380.38;4952282;28;20067;-78
2021/03/11 11:49:12;;;;;;;9.40;1.33;;;;;;;7.21;100.00;96376.28;4953347;28;20039;-78
2021/03/11 11:51:39;;;;;;;10.15;1.63;;;;;;;7.04;100.00;96371.53;4952240;28;20055;-78
2021/03/11 11:54:06;;;;;;;11.18;2.08;;;;;;;7.08;100.00;96377.69;4953399;28;20121;-77
2021/03/11 11:56:33;;;;;;;8.95;1.60;;;;;;;7.32;100.00;96381.34;4953303;28;20043;-77
2021/03/11 11:59:00;;;;;;;16.08;2.20;;;;;;;7.26;100.00;96384.00;4951763;29;20043;-77
2021/03/11 12:01:27;;;;;;;8.82;1.42;;;;;;;7.16;100.00;96378.91;4945717;28;20046;-78
2021/03/11 12:03:57;;;;;;;7.72;2.03;;;;;;;6.97;100.00;96372.59;4943421;28;20054;-78
2021/03/11 12:06:24;;;;;;;11.70;1.83;;;;;;;7.15;100.00;96400.34;4951766;28;20043;-78
2021/03/11 12:08:51;;;;;;;5.85;1.10;;;;;;;7.26;100.00;96372.88;4953260;29;20170;-78
2021/03/11 12:11:17;;;;;;;5.40;1.45;;;;;;;7.24;100.00;96388.44;4951731;28;20038;-78
2021/03/11 12:13:44;;;;;;;11.77;1.60;;;;;;;7.02;100.00;96388.66;4953111;28;20047;-78
2021/03/11 12:16:12;;;;;;;9.68;1.42;;;;;;;7.06;100.00;96386.47;4951804;28;20047;-78
2021/03/11 12:18:39;;;;;;;12.80;1.70;;;;;;;7.00;100.00;96398.66;4952761;28;20410;-77
2021/03/11 12:21:06;;;;;;;5.53;1.10;;;;;;;7.09;100.00;96409.75;4951739;28;20375;-78
2021/03/11 12:23:34;;;;;;;5.28;1.55;;;;;;;7.20;100.00;96418.41;4953042;28;20039;-78
2021/03/11 12:26:01;;;;;;;8.70;1.50;;;;;;;7.18;100.00;96395.88;4952649;28;20070;-78
2021/03/11 12:28:28;;;;;;;7.88;1.50;;;;;;;7.25;100.00;96412.22;4951445;29;20047;-77
2021/03/11 12:30:54;;;;;;;8.40;1.58;;;;;;;7.14;100.00;96389.72;4950536;28;20092;-78
2021/03/11 12:33:21;;;;;;;11.27;1.60;;;;;;;7.20;100.00;96407.28;4952183;28;20039;-79
2021/03/11 12:35:48;;;;;;;6.97;1.17;;;;;;;7.31;100.00;96413.16;4953182;28;20043;-79
2021/03/11 12:38:15;;;;;;;7.30;1.35;;;;;;;7.19;100.00;96417.63;4951166;28;20486;-78
2021/03/11 12:40:42;;;;;;;10.20;1.75;;;;;;;7.19;100.00;96405.75;4952236;28;20071;-77
2021/03/11 12:43:09;;;;;;;6.75;1.38;;;;;;;7.10;100.00;96403.75;4950884;29;20043;-77